Time;durP1;ratioP1;P1;durP2;ratioP2;P2;SDS_P1;SDS_P2;PMS_P1;PMS_P2;Temp;Humidity;BMP_temperature;BMP_pressure;BME280_temperature;BME280_humidity;BME280_pressure;Samples;Min_cycle;Max_cycle;Signal;HPM_P1;HPM_P2
2022/07/26 00:01:57;;;;;;;4.33;2.00;;;25.10;82.50;;;;;;5003239;28;20442;-67
2022/07/26 00:04:23;;;;;;;3.43;1.80;;;25.30;82.30;;;;;;4998353;28;21495;-68
2022/07/26 00:06:49;;;;;;;2.10;1.87;;;25.30;82.30;;;;;;4983828;28;20543;-68
2022/07/26 00:09:14;;;;;;;2.60;1.80;;;25.40;82.30;;;;;;4984095;28;20276;-69
2022/07/26 00:11:40;;;;;;;3.00;1.80;;;25.30;82.40;;;;;;4983876;28;20216;-68
2022/07/26 00:14:08;;;;;;;6.17;1.97;;;25.40;82.60;;;;;;5002540;28;20184;-70
2022/07/26 00:16:34;;;;;;;1.83;1.60;;;25.30;83.00;;;;;;5003706;28;20267;-68
2022/07/26 00:19:00;;;;;;;3.50;1.83;;;25.20;83.30;;;;;;5002430;28;20414;-70
2022/07/26 00:21:25;;;;;;;2.00;1.80;;;25.50;83.20;;;;;;4983983;28;20889;-69
2022/07/26 00:23:51;;;;;;;4.07;2.10;;;25.60;82.80;;;;;;4984197;28;20185;-67
2022/07/26 00:26:17;;;;;;;2.73;1.90;;;25.50;83.30;;;;;;4985325;28;20208;-68
2022/07/26 00:28:42;;;;;;;2.43;1.90;;;25.50;83.50;;;;;;5003390;28;20621;-68
2022/07/26 00:31:10;;;;;;;3.73;2.13;;;25.50;83.50;;;;;;5003076;28;20684;-70
2022/07/26 00:33:36;;;;;;;4.03;1.83;;;25.50;84.00;;;;;;5003344;28;20184;-68
2022/07/26 00:36:01;;;;;;;2.10;1.90;;;25.70;83.60;;;;;;4984221;28;20529;-68
2022/07/26 00:38:27;;;;;;;3.80;2.27;;;25.60;83.30;;;;;;4983890;28;20177;-68
2022/07/26 00:40:53;;;;;;;2.07;1.67;;;25.60;83.50;;;;;;4983657;28;20279;-68
2022/07/26 00:43:18;;;;;;;5.17;2.33;;;25.70;83.50;;;;;;4986287;28;20646;-68
2022/07/26 00:45:44;;;;;;;3.10;2.40;;;25.60;83.80;;;;;;5000896;28;20210;-67
2022/07/26 00:48:09;;;;;;;3.40;2.30;;;25.50;84.30;;;;;;4985845;28;20255;-68
2022/07/26 00:50:35;;;;;;;2.07;1.87;;;25.50;85.00;;;;;;4986955;28;20291;-68
2022/07/26 00:53:01;;;;;;;4.77;2.20;;;25.30;85.40;;;;;;4987324;28;20196;-69
2022/07/26 00:55:27;;;;;;;2.47;1.60;;;25.40;86.00;;;;;;4987820;28;20448;-68
2022/07/26 00:57:53;;;;;;;4.80;2.40;;;25.30;86.40;;;;;;4988107;28;20613;-68
2022/07/26 01:00:21;;;;;;;3.20;2.20;;;25.50;86.30;;;;;;4995487;28;20240;-68
2022/07/26 01:02:46;;;;;;;2.43;2.23;;;25.50;86.00;;;;;;4987002;28;20235;-68
2022/07/26 01:05:12;;;;;;;6.50;2.63;;;25.50;86.30;;;;;;5002936;28;20411;-68
2022/07/26 01:07:39;;;;;;;2.80;2.10;;;25.40;86.80;;;;;;5006282;28;20567;-68
2022/07/26 01:10:10;;;;;;;4.53;2.10;;;25.30;87.70;;;;;;5002607;28;20279;-68
2022/07/26 01:12:39;;;;;;;1.60;1.50;;;25.30;88.20;;;;;;4987104;28;20793;-68
2022/07/26 01:15:06;;;;;;;2.90;1.40;;;25.10;90.10;;;;;;4986543;28;20418;-68
2022/07/26 01:17:31;;;;;;;2.10;1.60;;;24.80;90.60;;;;;;4986652;28;20424;-69
2022/07/26 01:19:57;;;;;;;4.07;1.60;;;24.50;92.30;;;;;;4987613;28;20463;-67
2022/07/26 01:22:23;;;;;;;3.13;1.33;;;24.30;93.80;;;;;;4997845;28;20181;-69
2022/07/26 01:24:48;;;;;;;4.73;1.57;;;23.70;97.10;;;;;;4995258;28;20259;-68
2022/07/26 01:27:14;;;;;;;1.30;1.20;;;23.30;99.90;;;;;;4991983;28;20208;-66
2022/07/26 01:29:40;;;;;;;3.47;2.23;;;23.10;99.90;;;;;;4986666;28;20600;-68
2022/07/26 01:32:06;;;;;;;2.53;1.87;;;22.90;99.90;;;;;;5002203;28;20191;-68
2022/07/26 01:34:31;;;;;;;2.10;1.90;;;22.70;99.90;;;;;;4986784;28;20628;-66
2022/07/26 01:36:57;;;;;;;2.07;1.60;;;22.60;99.90;;;;;;4986489;28;20415;-67
2022/07/26 01:39:23;;;;;;;2.60;1.60;;;22.70;99.90;;;;;;4989368;28;20355;-67
2022/07/26 01:41:48;;;;;;;1.77;1.67;;;22.80;99.90;;;;;;4994403;28;20176;-68
2022/07/26 01:44:14;;;;;;;3.20;1.73;;;23.00;99.90;;;;;;5001547;28;20588;-68
2022/07/26 01:46:39;;;;;;;3.10;1.90;;;23.00;99.90;;;;;;4995621;28;20261;-69
2022/07/26 01:49:07;;;;;;;2.43;2.00;;;23.00;99.90;;;;;;4986166;28;20184;-69
2022/07/26 01:51:33;;;;;;;3.00;1.63;;;23.10;99.90;;;;;;4985809;28;20196;-67
2022/07/26 01:54:00;;;;;;;3.00;2.00;;;23.00;99.90;;;;;;4999476;28;20512;-70
2022/07/26 01:56:25;;;;;;;2.10;1.90;;;23.10;99.90;;;;;;5004787;28;20180;-67
2022/07/26 01:58:51;;;;;;;2.03;1.73;;;23.10;99.90;;;;;;4985079;28;20426;-68
2022/07/26 02:01:17;;;;;;;3.47;1.90;;;23.30;99.90;;;;;;4995726;28;20590;-68
2022/07/26 02:03:43;;;;;;;4.40;1.70;;;23.50;99.90;;;;;;4989622;28;20536;-68
2022/07/26 02:06:08;;;;;;;2.40;1.80;;;23.60;99.90;;;;;;4985415;28;20474;-68
2022/07/26 02:08:34;;;;;;;2.00;1.80;;;23.70;99.90;;;;;;4987625;28;20233;-67
2022/07/26 02:11:00;;;;;;;1.70;1.60;;;23.80;99.90;;;;;;5004909;28;20219;-68
2022/07/26 02:13:37;;;;;;;1.93;1.40;;;23.80;99.90;;;;;;5000610;28;20245;-66
2022/07/26 02:16:05;;;;;;;1.73;1.63;;;23.80;99.90;;;;;;4986572;28;20172;-67
2022/07/26 02:18:31;;;;;;;1.70;1.60;;;23.80;99.90;;;;;;4998564;28;20792;-67
2022/07/26 02:20:58;;;;;;;1.60;1.50;;;23.70;99.90;;;;;;4985757;28;20459;-67
2022/07/26 02:23:24;;;;;;;2.33;1.60;;;23.80;99.90;;;;;;4985881;28;20215;-68
2022/07/26 02:25:50;;;;;;;3.63;1.70;;;23.80;99.90;;;;;;4985454;28;20818;-68
2022/07/26 02:28:16;;;;;;;2.23;1.70;;;23.90;99.90;;;;;;4998091;28;20422;-67
2022/07/26 02:30:43;;;;;;;1.67;1.40;;;23.80;99.90;;;;;;5004837;28;20200;-67
2022/07/26 02:33:08;;;;;;;2.30;1.83;;;23.80;99.90;;;;;;4995371;28;20180;-68
2022/07/26 02:35:34;;;;;;;2.17;1.80;;;23.70;99.90;;;;;;4989124;28;20492;-67
2022/07/26 02:38:06;;;;;;;2.77;1.70;;;23.80;99.90;;;;;;4997279;28;20175;-67
2022/07/26 02:40:52;;;;;;;2.00;1.80;;;23.90;99.90;;;;;;4986393;28;21277;-67
2022/07/26 02:43:18;;;;;;;1.83;1.20;;;23.90;99.90;;;;;;4986643;28;20416;-69
2022/07/26 02:45:43;;;;;;;2.87;1.50;;;24.00;99.90;;;;;;4991844;28;20448;-69
2022/07/26 02:48:09;;;;;;;2.70;1.40;;;23.80;99.90;;;;;;4998124;28;20441;-69
2022/07/26 02:50:35;;;;;;;4.17;1.57;;;23.80;99.90;;;;;;5004277;28;20215;-67
2022/07/26 02:53:00;;;;;;;2.90;1.43;;;23.90;99.90;;;;;;5004760;28;20172;-67
2022/07/26 02:55:26;;;;;;;3.07;1.50;;;23.80;99.90;;;;;;4994997;28;20185;-68
2022/07/26 02:57:52;;;;;;;1.60;1.40;;;23.80;99.90;;;;;;4984776;28;20177;-67
2022/07/26 03:00:23;;;;;;;2.03;1.70;;;23.70;99.90;;;;;;4984929;28;21058;-66
2022/07/26 03:02:50;;;;;;;1.73;1.30;;;23.80;99.90;;;;;;4985114;28;20231;-68
2022/07/26 03:05:16;;;;;;;1.40;1.07;;;23.80;99.90;;;;;;4984959;28;20412;-66
2022/07/26 03:07:41;;;;;;;1.50;1.40;;;23.80;99.90;;;;;;4984957;28;20522;-67
2022/07/26 03:10:07;;;;;;;1.60;1.50;;;23.80;99.90;;;;;;4984660;28;20561;-67
2022/07/26 03:12:33;;;;;;;2.20;1.40;;;23.60;99.90;;;;;;4984921;28;20276;-67
2022/07/26 03:14:58;;;;;;;1.80;1.50;;;23.60;99.90;;;;;;4984754;28;20502;-67
2022/07/26 03:17:24;;;;;;;9.13;1.40;;;23.80;99.90;;;;;;4994182;28;20192;-66
2022/07/26 03:19:50;;;;;;;2.80;1.53;;;23.70;99.90;;;;;;5004013;28;20891;-67
2022/07/26 03:22:15;;;;;;;1.30;1.10;;;23.80;99.90;;;;;;5000096;28;20180;-67
2022/07/26 03:24:41;;;;;;;1.57;1.47;;;23.70;99.90;;;;;;5004173;28;20182;-66
2022/07/26 03:27:07;;;;;;;3.80;1.50;;;23.60;99.90;;;;;;4984060;28;20187;-66
2022/07/26 03:29:32;;;;;;;1.50;1.30;;;23.60;99.90;;;;;;4992566;28;20278;-69
2022/07/26 03:31:58;;;;;;;1.43;1.30;;;23.50;99.90;;;;;;4984439;28;20561;-67
2022/07/26 03:34:23;;;;;;;1.80;1.30;;;23.50;99.90;;;;;;4990998;28;20226;-67
2022/07/26 03:36:49;;;;;;;1.77;1.50;;;23.50;99.90;;;;;;4998302;28;20173;-68
2022/07/26 03:39:14;;;;;;;2.23;1.30;;;23.50;99.90;;;;;;4989512;28;20259;-70
2022/07/26 03:41:40;;;;;;;2.80;1.97;;;23.50;99.90;;;;;;4984725;28;20601;-68
2022/07/26 03:44:06;;;;;;;2.00;1.40;;;23.50;99.90;;;;;;5001791;28;20565;-67
2022/07/26 03:46:31;;;;;;;1.97;1.77;;;23.60;99.90;;;;;;4999143;28;20200;-67
2022/07/26 03:48:57;;;;;;;1.77;1.47;;;23.50;99.90;;;;;;4993239;28;20486;-69
2022/07/26 03:51:23;;;;;;;3.00;1.30;;;23.30;99.90;;;;;;5004091;28;20275;-67
2022/07/26 03:53:49;;;;;;;3.00;1.80;;;23.40;99.90;;;;;;5004167;28;20253;-67
2022/07/26 03:56:33;;;;;;;1.57;1.47;;;23.40;99.90;;;;;;5004072;28;20192;-67
2022/07/26 03:59:05;;;;;;;2.57;1.60;;;23.30;99.90;;;;;;4993291;28;20463;-68
2022/07/26 04:01:33;;;;;;;1.77;1.60;;;23.30;99.90;;;;;;4984382;28;20424;-67
2022/07/26 04:03:59;;;;;;;1.53;1.43;;;23.20;99.90;;;;;;4984476;28;20474;-68
2022/07/26 04:06:25;;;;;;;3.60;1.90;;;23.20;99.90;;;;;;4984612;28;20412;-66
2022/07/26 04:08:50;;;;;;;1.80;1.70;;;23.20;99.90;;;;;;4984262;28;20291;-67
2022/07/26 04:11:16;;;;;;;2.20;2.00;;;23.10;99.90;;;;;;4999426;28;20238;-67
2022/07/26 04:13:41;;;;;;;2.43;2.23;;;23.00;99.90;;;;;;4983977;28;20208;-66
2022/07/26 04:16:07;;;;;;;2.00;1.67;;;23.00;99.90;;;;;;4988793;28;20713;-67
2022/07/26 04:18:33;;;;;;;4.83;1.80;;;22.90;99.90;;;;;;4986211;28;20219;-67
2022/07/26 04:20:59;;;;;;;2.10;1.90;;;22.90;99.90;;;;;;4989047;28;20524;-67
2022/07/26 04:23:24;;;;;;;2.30;1.83;;;22.90;99.90;;;;;;5005044;28;20187;-68
2022/07/26 04:25:50;;;;;;;2.97;1.70;;;22.90;99.90;;;;;;4993679;28;20542;-68
2022/07/26 04:28:16;;;;;;;3.37;1.80;;;22.80;99.90;;;;;;4993758;28;20737;-64
2022/07/26 04:30:42;;;;;;;2.70;1.67;;;22.80;99.90;;;;;;4999376;28;20204;-70
2022/07/26 04:33:08;;;;;;;2.70;1.70;;;22.80;99.90;;;;;;5007183;28;20191;-67
2022/07/26 04:35:33;;;;;;;2.10;1.67;;;22.90;99.90;;;;;;5006817;28;20422;-68
2022/07/26 04:38:00;;;;;;;2.00;1.70;;;22.90;99.90;;;;;;4996042;28;20173;-68
2022/07/26 04:40:27;;;;;;;3.00;1.80;;;22.80;99.90;;;;;;4999901;28;20707;-68
2022/07/26 04:42:53;;;;;;;3.37;1.87;;;22.80;99.90;;;;;;5000287;28;20742;-68
2022/07/26 04:45:19;;;;;;;3.47;1.63;;;22.80;99.90;;;;;;4995338;28;20999;-67
2022/07/26 04:47:48;;;;;;;1.93;1.83;;;22.60;99.90;;;;;;5006507;28;20426;-64
2022/07/26 04:50:15;;;;;;;2.47;2.27;;;22.60;99.90;;;;;;4996972;28;20502;-63
2022/07/26 04:52:40;;;;;;;2.00;1.90;;;22.40;99.90;;;;;;4987226;28;20424;-64
2022/07/26 04:55:08;;;;;;;1.53;1.43;;;22.50;99.90;;;;;;4992465;28;20876;-66
2022/07/26 04:57:34;;;;;;;1.53;1.40;;;22.40;99.90;;;;;;4986972;28;20603;-66
2022/07/26 05:00:00;;;;;;;2.47;1.80;;;22.50;99.90;;;;;;4986950;28;20474;-65
2022/07/26 05:02:25;;;;;;;5.23;2.03;;;22.50;99.90;;;;;;5001473;28;20458;-65
2022/07/26 05:04:51;;;;;;;2.50;1.87;;;22.40;99.90;;;;;;4988365;28;20416;-65
2022/07/26 05:07:18;;;;;;;2.23;2.03;;;22.50;99.90;;;;;;5006403;28;20301;-66
2022/07/26 05:09:43;;;;;;;3.70;1.70;;;22.70;99.90;;;;;;5000291;28;20200;-67
2022/07/26 05:12:09;;;;;;;2.57;2.13;;;22.80;99.90;;;;;;4987170;28;20807;-63
2022/07/26 05:14:36;;;;;;;4.53;2.47;;;22.90;99.90;;;;;;5006202;28;20180;-64
2022/07/26 05:17:02;;;;;;;2.63;2.30;;;22.80;99.90;;;;;;5002663;28;20180;-65
2022/07/26 05:19:28;;;;;;;2.23;2.07;;;22.80;99.90;;;;;;4997316;28;21310;-69
2022/07/26 05:21:53;;;;;;;3.50;2.20;;;22.80;99.90;;;;;;5000266;28;20477;-67
2022/07/26 05:24:19;;;;;;;2.70;2.37;;;22.80;99.90;;;;;;4986663;28;20216;-68
2022/07/26 05:26:44;;;;;;;3.90;2.17;;;22.90;99.90;;;;;;4986848;28;20189;-68
2022/07/26 05:29:10;;;;;;;2.57;2.30;;;22.90;99.90;;;;;;4986827;28;20180;-68
2022/07/26 05:31:36;;;;;;;3.27;2.27;;;22.80;99.90;;;;;;4997873;28;20263;-68
2022/07/26 05:34:02;;;;;;;5.80;2.67;;;23.00;99.90;;;;;;4992237;28;20188;-68
2022/07/26 05:36:28;;;;;;;3.30;2.37;;;23.10;99.90;;;;;;5001008;28;20188;-68
2022/07/26 05:38:54;;;;;;;2.57;2.37;;;23.30;99.90;;;;;;4999350;28;20598;-68
2022/07/26 05:41:19;;;;;;;3.67;2.40;;;23.40;99.90;;;;;;4986696;28;20451;-68
2022/07/26 05:43:45;;;;;;;2.63;2.43;;;23.60;99.90;;;;;;4996617;28;20215;-68
2022/07/26 05:46:11;;;;;;;4.60;2.50;;;23.50;99.90;;;;;;4991848;28;20231;-68
2022/07/26 05:48:38;;;;;;;3.40;2.50;;;23.40;99.90;;;;;;5002289;28;20176;-69
2022/07/26 05:51:03;;;;;;;2.47;2.27;;;23.40;99.90;;;;;;4994659;28;20819;-68
2022/07/26 05:53:29;;;;;;;3.13;2.30;;;23.30;99.90;;;;;;4997086;28;20481;-69
2022/07/26 05:55:54;;;;;;;3.53;2.40;;;23.30;99.90;;;;;;5005615;28;20188;-69
2022/07/26 05:58:20;;;;;;;3.03;2.40;;;22.90;99.90;;;;;;5005586;28;20226;-68
2022/07/26 06:00:46;;;;;;;6.40;3.00;;;22.80;99.90;;;;;;4991656;28;20700;-70
2022/07/26 06:03:24;;;;;;;2.67;2.47;;;22.80;99.90;;;;;;4986029;28;20204;-68
2022/07/26 06:05:52;;;;;;;2.60;2.40;;;22.80;99.90;;;;;;4986276;28;20190;-68
2022/07/26 06:08:18;;;;;;;6.83;2.73;;;22.80;99.90;;;;;;4997926;28;20427;-68
2022/07/26 06:10:45;;;;;;;3.10;2.80;;;22.80;99.90;;;;;;4985140;28;20511;-69
2022/07/26 06:13:11;;;;;;;3.87;2.50;;;23.00;99.90;;;;;;4985485;28;20513;-68
2022/07/26 06:15:37;;;;;;;4.30;2.50;;;23.10;99.90;;;;;;4985434;28;20427;-69
2022/07/26 06:18:04;;;;;;;3.50;2.30;;;23.30;99.90;;;;;;4985624;28;20424;-68
2022/07/26 06:20:31;;;;;;;5.63;2.90;;;23.20;99.90;;;;;;4985536;28;21051;-68
2022/07/26 06:22:57;;;;;;;3.90;2.50;;;23.30;99.90;;;;;;5005126;28;20556;-69
2022/07/26 06:25:24;;;;;;;5.37;2.50;;;23.20;99.90;;;;;;5005076;28;20462;-68
2022/07/26 06:27:49;;;;;;;4.33;2.20;;;23.30;99.90;;;;;;4989743;28;20407;-70
2022/07/26 06:30:15;;;;;;;3.63;2.50;;;23.20;99.90;;;;;;4985315;28;20443;-68
2022/07/26 06:32:44;;;;;;;4.13;2.20;;;23.20;99.90;;;;;;4984894;28;21137;-68
2022/07/26 06:35:13;;;;;;;2.60;1.77;;;23.30;99.90;;;;;;5002095;28;20275;-68
2022/07/26 06:37:40;;;;;;;4.30;1.93;;;23.30;99.90;;;;;;4985221;28;20901;-68
2022/07/26 06:40:07;;;;;;;3.40;2.80;;;23.20;99.90;;;;;;4984809;28;20467;-69
2022/07/26 06:42:34;;;;;;;2.63;1.80;;;23.20;99.90;;;;;;4985045;28;20424;-69
2022/07/26 06:45:00;;;;;;;9.03;3.07;;;23.30;99.90;;;;;;4984475;28;20411;-69
2022/07/26 06:47:26;;;;;;;8.07;2.20;;;23.30;99.90;;;;;;4994811;28;20407;-68
2022/07/26 06:49:53;;;;;;;6.10;1.80;;;23.40;99.90;;;;;;5000764;28;20434;-68
2022/07/26 06:52:18;;;;;;;3.30;1.63;;;23.50;99.90;;;;;;5004497;28;20544;-69
2022/07/26 06:54:44;;;;;;;3.10;1.53;;;23.40;99.90;;;;;;5001446;28;20507;-68
2022/07/26 06:57:10;;;;;;;4.23;1.57;;;23.50;99.90;;;;;;4986710;28;20271;-69
2022/07/26 06:59:36;;;;;;;3.10;1.60;;;23.70;99.90;;;;;;5003700;28;20200;-68
2022/07/26 07:02:02;;;;;;;2.20;1.57;;;23.70;99.50;;;;;;5004935;28;20668;-66
2022/07/26 07:04:30;;;;;;;3.80;1.60;;;23.70;99.30;;;;;;4993950;28;20228;-69
2022/07/26 07:07:01;;;;;;;3.07;1.40;;;23.60;99.30;;;;;;4984661;28;21625;-69
2022/07/26 07:09:27;;;;;;;2.13;1.57;;;23.70;98.40;;;;;;4999982;28;20407;-69
2022/07/26 07:11:52;;;;;;;3.13;1.43;;;23.80;97.20;;;;;;4996552;28;20692;-66
2022/07/26 07:14:18;;;;;;;3.33;1.67;;;23.90;96.90;;;;;;4994247;28;21053;-69
2022/07/26 07:16:44;;;;;;;1.67;1.57;;;23.60;97.10;;;;;;4994371;28;20188;-68
2022/07/26 07:19:09;;;;;;;4.77;1.73;;;23.70;97.30;;;;;;4995889;28;20187;-67
2022/07/26 07:21:35;;;;;;;4.03;1.70;;;23.80;96.90;;;;;;4989084;28;20197;-68
2022/07/26 07:24:00;;;;;;;2.80;1.37;;;23.90;96.90;;;;;;4989117;28;20172;-68
2022/07/26 07:26:26;;;;;;;2.00;1.37;;;24.00;96.90;;;;;;5000365;28;20177;-67
2022/07/26 07:28:51;;;;;;;2.90;1.47;;;24.00;97.00;;;;;;5000097;28;20187;-68
2022/07/26 07:31:17;;;;;;;3.83;1.70;;;24.10;96.60;;;;;;4985723;28;20199;-70
2022/07/26 07:33:43;;;;;;;2.20;1.40;;;24.20;96.40;;;;;;4996984;28;20672;-70
2022/07/26 07:36:08;;;;;;;3.00;1.50;;;24.10;95.90;;;;;;4994411;28;20180;-69
2022/07/26 07:38:34;;;;;;;2.80;1.70;;;24.20;96.20;;;;;;4997706;28;20186;-68
2022/07/26 07:40:59;;;;;;;3.30;1.73;;;24.40;95.90;;;;;;4997818;28;20218;-69
2022/07/26 07:43:25;;;;;;;3.70;1.43;;;24.50;95.60;;;;;;4989579;28;20176;-69
2022/07/26 07:45:51;;;;;;;1.83;1.57;;;24.60;95.30;;;;;;4997919;28;20184;-68
2022/07/26 07:48:16;;;;;;;3.33;1.50;;;24.60;95.10;;;;;;4997693;28;20230;-71
2022/07/26 07:50:42;;;;;;;1.87;1.20;;;24.40;95.00;;;;;;4993910;28;20231;-69
2022/07/26 07:53:08;;;;;;;5.60;1.40;;;24.50;95.20;;;;;;4996288;28;20873;-69
2022/07/26 07:55:33;;;;;;;2.93;1.77;;;24.30;94.90;;;;;;4996246;28;20192;-70
2022/07/26 07:57:59;;;;;;;4.87;1.80;;;24.30;94.90;;;;;;4999431;28;20188;-68
2022/07/26 08:00:25;;;;;;;5.67;1.80;;;24.60;94.70;;;;;;5000467;28;20214;-68
2022/07/26 08:02:51;;;;;;;2.87;1.60;;;24.80;94.30;;;;;;5002132;28;20180;-70
2022/07/26 08:05:17;;;;;;;3.40;1.57;;;24.90;93.80;;;;;;5019718;22;20955;-67
2022/07/26 08:07:42;;;;;;;3.73;1.50;;;24.90;93.70;;;;;;5003858;28;20176;-68
2022/07/26 08:10:09;;;;;;;5.67;3.83;;;25.00;93.20;;;;;;5003937;28;20179;-68
2022/07/26 08:12:35;;;;;;;3.00;1.50;;;24.80;93.20;;;;;;5004312;28;20183;-67
2022/07/26 08:15:01;;;;;;;5.87;1.67;;;24.60;93.40;;;;;;5003916;28;20436;-66
2022/07/26 08:17:27;;;;;;;2.23;1.40;;;24.50;93.40;;;;;;5003567;28;20187;-68
2022/07/26 08:19:52;;;;;;;3.67;1.30;;;24.50;93.50;;;;;;5003853;28;20454;-67
2022/07/26 08:22:18;;;;;;;1.93;1.30;;;24.70;93.20;;;;;;4972420;28;20180;-67
2022/07/26 08:24:45;;;;;;;2.60;1.50;;;24.90;92.90;;;;;;5003390;28;20206;-68
2022/07/26 08:27:11;;;;;;;4.30;1.27;;;24.90;92.80;;;;;;5003101;28;20191;-68
2022/07/26 08:29:37;;;;;;;2.00;1.27;;;24.80;92.50;;;;;;5004015;28;20411;-66
2022/07/26 08:32:03;;;;;;;2.80;1.50;;;24.80;92.90;;;;;;5003127;28;20415;-66
2022/07/26 08:34:29;;;;;;;1.70;1.40;;;24.70;92.50;;;;;;4989874;28;20200;-68
2022/07/26 08:36:54;;;;;;;2.97;1.73;;;24.50;92.40;;;;;;5003309;28;20520;-67
2022/07/26 08:39:20;;;;;;;5.60;1.87;;;24.50;92.70;;;;;;5003785;28;20716;-68
2022/07/26 08:41:46;;;;;;;4.60;1.80;;;24.70;92.30;;;;;;5000964;28;20184;-67
2022/07/26 08:44:11;;;;;;;2.80;1.70;;;24.90;92.00;;;;;;5003518;28;21480;-67
2022/07/26 08:46:39;;;;;;;2.73;1.37;;;25.20;91.70;;;;;;5003127;28;20594;-67
2022/07/26 08:49:07;;;;;;;4.57;1.70;;;25.40;91.30;;;;;;5002692;28;20652;-68
2022/07/26 08:51:33;;;;;;;3.13;1.77;;;25.40;90.80;;;;;;5002667;28;20924;-67
2022/07/26 08:53:59;;;;;;;2.70;1.30;;;25.30;90.60;;;;;;5003406;28;20420;-66
2022/07/26 08:56:25;;;;;;;3.57;1.60;;;25.20;90.70;;;;;;5003096;28;20444;-67
2022/07/26 08:58:50;;;;;;;10.17;1.90;;;25.10;90.50;;;;;;5003812;28;20422;-67
2022/07/26 09:01:17;;;;;;;4.97;1.40;;;24.90;90.90;;;;;;5002867;28;20203;-66
2022/07/26 09:03:44;;;;;;;2.37;1.10;;;24.80;91.10;;;;;;5002766;28;20180;-67
2022/07/26 09:06:11;;;;;;;3.13;1.43;;;25.10;91.10;;;;;;5002166;28;21005;-67
2022/07/26 09:08:37;;;;;;;3.37;1.77;;;25.20;90.50;;;;;;5002628;28;20513;-68
2022/07/26 09:11:22;;;;;;;2.90;1.10;;;25.20;90.00;;;;;;5002902;28;20531;-67
2022/07/26 09:13:54;;;;;;;3.13;1.27;;;25.40;89.50;;;;;;4987783;28;20218;-66
2022/07/26 09:16:20;;;;;;;3.20;1.53;;;25.40;89.20;;;;;;5006438;28;20955;-67
2022/07/26 09:18:45;;;;;;;3.83;1.30;;;25.30;90.00;;;;;;5006047;28;20461;-67
2022/07/26 09:21:34;;;;;;;2.40;1.37;;;25.50;90.60;;;;;;5006167;28;20255;-69
2022/07/26 09:24:00;;;;;;;1.60;1.27;;;25.60;88.50;;;;;;5006616;28;20704;-68
2022/07/26 09:26:27;;;;;;;2.70;1.30;;;25.60;88.00;;;;;;5006348;28;20434;-67
2022/07/26 09:29:06;;;;;;;1.93;1.07;;;25.50;87.40;;;;;;5006618;28;20419;-66
2022/07/26 09:31:32;;;;;;;2.37;1.40;;;25.60;88.10;;;;;;5006720;28;20767;-66
2022/07/26 09:33:58;;;;;;;3.43;1.20;;;25.80;86.60;;;;;;5006099;28;20778;-67
2022/07/26 09:36:26;;;;;;;3.87;1.20;;;25.70;87.20;;;;;;5005806;28;20446;-68
2022/07/26 09:38:59;;;;;;;3.30;1.77;;;25.90;85.50;;;;;;5006571;28;20415;-67
2022/07/26 09:41:29;;;;;;;1.83;1.10;;;25.90;85.40;;;;;;5005902;28;20450;-68
2022/07/26 09:44:00;;;;;;;3.23;1.60;;;26.00;85.50;;;;;;5005885;28;20427;-67
2022/07/26 09:46:28;;;;;;;3.10;1.30;;;26.00;85.70;;;;;;4972363;28;20811;-66
2022/07/26 09:48:55;;;;;;;3.70;1.63;;;26.00;85.30;;;;;;5005677;28;20411;-68
2022/07/26 09:51:34;;;;;;;2.70;1.20;;;26.30;83.30;;;;;;5005471;28;20421;-67
2022/07/26 09:54:00;;;;;;;3.03;1.70;;;26.20;82.90;;;;;;5005280;28;20411;-66
2022/07/26 09:56:44;;;;;;;1.90;1.30;;;26.00;84.20;;;;;;5002443;28;20437;-67
2022/07/26 09:59:16;;;;;;;5.50;1.30;;;26.00;86.30;;;;;;5005064;28;20172;-67
2022/07/26 10:01:43;;;;;;;5.20;1.70;;;26.00;85.80;;;;;;5005474;28;21500;-67
2022/07/26 10:04:09;;;;;;;3.60;1.47;;;26.20;85.20;;;;;;5005336;28;20411;-68
2022/07/26 10:06:35;;;;;;;2.33;1.13;;;26.00;86.00;;;;;;5004350;28;20443;-67
2022/07/26 10:09:02;;;;;;;4.17;1.37;;;25.80;86.50;;;;;;5005277;28;20469;-67
2022/07/26 10:12:02;;;;;;;3.53;1.40;;;25.40;87.80;;;;;;5004946;28;20179;-64
2022/07/26 10:14:36;;;;;;;3.10;1.20;;;25.30;87.10;;;;;;4983173;28;20517;-67
2022/07/26 10:17:26;;;;;;;2.17;1.23;;;25.30;88.10;;;;;;5005286;28;21594;-67
2022/07/26 10:20:00;;;;;;;2.00;1.33;;;25.40;88.00;;;;;;5002974;28;20461;-67
2022/07/26 10:22:49;;;;;;;4.07;1.10;;;25.60;88.00;;;;;;5005492;28;20808;-68
2022/07/26 10:25:17;;;;;;;2.33;1.30;;;25.50;88.30;;;;;;5005494;28;20955;-66
2022/07/26 10:27:47;;;;;;;4.90;1.63;;;25.10;89.40;;;;;;5005017;28;20522;-67
2022/07/26 10:30:19;;;;;;;2.27;1.27;;;25.20;89.10;;;;;;5005122;28;20411;-67
2022/07/26 10:32:50;;;;;;;1.30;1.20;;;25.50;89.20;;;;;;5005367;28;20473;-68
2022/07/26 10:35:51;;;;;;;2.90;1.17;;;25.70;88.40;;;;;;5004660;28;20434;-68
2022/07/26 10:38:24;;;;;;;2.67;1.20;;;25.70;88.40;;;;;;4963486;28;20466;-66
2022/07/26 10:40:56;;;;;;;2.83;1.50;;;26.00;88.30;;;;;;4998111;28;20455;-68
2022/07/26 10:43:22;;;;;;;2.23;1.20;;;26.20;86.00;;;;;;5004886;28;20403;-68
2022/07/26 10:45:48;;;;;;;1.60;1.00;;;25.90;85.80;;;;;;5004606;28;20957;-67
2022/07/26 10:48:18;;;;;;;8.00;1.93;;;26.00;86.70;;;;;;5004924;28;20403;-68
2022/07/26 10:50:46;;;;;;;2.93;1.43;;;26.40;86.80;;;;;;5004511;28;20266;-68
2022/07/26 10:53:23;;;;;;;2.87;1.30;;;26.80;85.10;;;;;;5004725;28;20411;-68
2022/07/26 10:55:50;;;;;;;2.10;1.43;;;26.80;84.00;;;;;;5004422;28;20878;-67
2022/07/26 10:58:17;;;;;;;2.40;1.40;;;26.60;83.30;;;;;;5003658;28;20422;-67
2022/07/26 11:00:55;;;;;;;2.67;1.70;;;26.20;84.30;;;;;;5004531;28;20473;-67
2022/07/26 11:03:21;;;;;;;2.40;1.37;;;26.00;84.80;;;;;;5004467;28;20426;-67
2022/07/26 11:05:48;;;;;;;2.27;1.20;;;26.10;84.80;;;;;;5003770;28;20472;-67
2022/07/26 11:08:13;;;;;;;1.80;1.17;;;26.10;84.20;;;;;;5004181;28;20518;-67
2022/07/26 11:10:44;;;;;;;2.30;1.30;;;26.20;83.60;;;;;;5003981;28;20569;-66
2022/07/26 11:13:17;;;;;;;2.50;1.30;;;26.40;84.30;;;;;;5004379;28;20188;-68
2022/07/26 11:15:48;;;;;;;2.70;0.97;;;26.80;82.80;;;;;;5004608;28;20427;-67
2022/07/26 11:18:21;;;;;;;2.20;1.20;;;27.10;81.20;;;;;;5004550;28;20395;-67
2022/07/26 11:20:50;;;;;;;1.20;1.07;;;27.10;80.10;;;;;;5004023;28;20459;-66
2022/07/26 11:23:24;;;;;;;2.87;1.20;;;27.60;80.10;;;;;;5004472;28;20421;-68
2022/07/26 11:26:18;;;;;;;2.70;1.10;;;27.30;79.50;;;;;;5003904;28;20430;-68
2022/07/26 11:28:45;;;;;;;2.50;1.23;;;27.30;79.30;;;;;;5004403;28;20456;-68
2022/07/26 11:31:11;;;;;;;2.20;1.17;;;27.70;77.00;;;;;;5004304;28;20962;-67
2022/07/26 11:33:42;;;;;;;3.90;1.03;;;28.40;76.00;;;;;;5003971;28;20464;-66
2022/07/26 11:36:08;;;;;;;1.93;1.30;;;29.40;72.50;;;;;;5003593;28;20203;-66
2022/07/26 11:38:53;;;;;;;2.07;1.10;;;29.60;72.10;;;;;;5004322;28;21520;-68
2022/07/26 11:41:27;;;;;;;1.33;1.03;;;29.90;70.50;;;;;;5004183;28;20955;-68
2022/07/26 11:43:53;;;;;;;2.00;1.10;;;29.30;70.60;;;;;;5003999;28;20427;-68
2022/07/26 11:46:19;;;;;;;1.20;1.07;;;29.80;70.00;;;;;;5003968;28;20434;-67
2022/07/26 11:48:50;;;;;;;1.13;0.80;;;30.80;66.80;;;;;;5003823;28;20785;-67
2022/07/26 11:51:19;;;;;;;2.13;1.50;;;31.50;64.60;;;;;;5003563;28;20414;-67
2022/07/26 11:53:45;;;;;;;2.23;0.90;;;31.10;63.00;;;;;;5003918;28;20411;-68
2022/07/26 11:56:21;;;;;;;1.40;0.90;;;30.70;63.20;;;;;;5003727;28;21577;-67
2022/07/26 11:58:49;;;;;;;2.53;1.20;;;30.10;64.60;;;;;;5003816;28;20411;-67
2022/07/26 12:01:17;;;;;;;1.60;0.93;;;30.70;64.10;;;;;;5003619;28;20504;-67
2022/07/26 12:03:45;;;;;;;6.10;1.23;;;30.50;62.30;;;;;;5004003;28;20403;-67
2022/07/26 12:06:15;;;;;;;2.10;1.27;;;29.70;64.20;;;;;;5003404;28;20482;-67
2022/07/26 12:08:50;;;;;;;1.70;1.00;;;29.30;65.10;;;;;;5004222;28;20418;-68
2022/07/26 12:11:17;;;;;;;2.40;1.10;;;29.70;63.90;;;;;;5004193;28;21367;-68
2022/07/26 12:13:51;;;;;;;1.90;1.27;;;30.20;62.50;;;;;;5003506;28;20476;-68
2022/07/26 12:16:39;;;;;;;1.77;0.90;;;29.90;62.40;;;;;;5002917;28;20552;-67
2022/07/26 12:19:06;;;;;;;1.40;1.00;;;29.50;63.40;;;;;;5000789;28;20922;-67
2022/07/26 12:21:41;;;;;;;1.90;1.00;;;29.90;62.70;;;;;;4985482;28;20458;-68
2022/07/26 12:24:07;;;;;;;1.83;0.90;;;30.50;60.10;;;;;;5003685;28;20410;-68
2022/07/26 12:26:33;;;;;;;1.80;1.07;;;30.50;60.70;;;;;;5003894;28;20432;-68
2022/07/26 12:31:45;;;;;;;2.37;1.00;;;31.50;58.60;;;;;;5003639;28;20449;-67
2022/07/26 12:34:10;;;;;;;1.43;0.90;;;29.30;59.90;;;;;;5003541;28;20524;-67
2022/07/26 12:36:36;;;;;;;2.13;1.33;;;28.40;62.70;;;;;;5003297;28;20983;-67
2022/07/26 12:39:03;;;;;;;2.10;0.90;;;28.90;62.30;;;;;;5003805;28;20176;-68
2022/07/26 12:41:30;;;;;;;2.27;1.20;;;29.50;61.40;;;;;;5002943;28;20211;-67
2022/07/26 12:43:55;;;;;;;1.23;1.00;;;30.00;60.20;;;;;;5004838;28;20418;-66
2022/07/26 12:46:21;;;;;;;2.60;0.90;;;31.10;58.20;;;;;;5007363;28;20431;-68
2022/07/26 12:48:46;;;;;;;2.60;1.27;;;31.00;56.90;;;;;;5007138;28;20574;-67
2022/07/26 12:51:12;;;;;;;1.70;0.90;;;29.80;59.50;;;;;;5002937;28;20180;-67
2022/07/26 12:53:38;;;;;;;2.40;1.13;;;30.90;57.90;;;;;;5006285;28;20250;-67